createdAt,value
2023-05-06T00:00:00.206Z,100265.64
2023-05-06T00:02:30.172Z,100265.48
2023-05-06T00:04:59.177Z,100263.84
2023-05-06T00:07:28.062Z,100257.59
2023-05-06T00:09:57.858Z,100257.70
2023-05-06T00:12:26.646Z,100253.00
2023-05-06T00:14:55.768Z,100249.31
2023-05-06T00:17:24.504Z,100245.64
2023-05-06T00:19:53.353Z,100246.73
2023-05-06T00:22:22.638Z,100245.84
2023-05-06T00:24:51.208Z,100235.77
2023-05-06T00:27:20.096Z,100230.33
2023-05-06T00:29:48.991Z,100230.02
2023-05-06T00:32:17.766Z,100230.14
2023-05-06T00:34:46.823Z,100227.44
2023-05-06T00:37:15.977Z,100228.52
2023-05-06T00:39:44.750Z,100226.80
2023-05-06T00:42:13.434Z,100227.98
2023-05-06T00:44:42.150Z,100229.88
2023-05-06T00:47:11.232Z,100224.58
2023-05-06T00:49:40.436Z,100224.45
2023-05-06T00:52:09.322Z,100222.79
2023-05-06T00:54:38.318Z,100219.48
2023-05-06T00:57:09.496Z,100221.86
2023-05-06T00:59:38.021Z,100220.26
2023-05-06T01:02:06.839Z,100216.98
2023-05-06T01:04:36.515Z,100218.59
2023-05-06T01:07:28.341Z,100215.48
2023-05-06T01:10:04.521Z,100214.15
2023-05-06T01:12:36.196Z,100220.69
2023-05-06T01:15:19.478Z,100225.38
2023-05-06T01:17:51.557Z,100226.19
2023-05-06T01:20:22.045Z,100232.51
2023-05-06T01:22:51.522Z,100234.06
2023-05-06T01:25:21.629Z,100234.59
2023-05-06T01:27:50.917Z,100231.85
2023-05-06T01:30:20.324Z,100235.17
2023-05-06T01:33:07.666Z,100235.71
2023-05-06T01:36:05.750Z,100237.85
2023-05-06T01:38:51.420Z,100237.02
2023-05-06T01:41:22.081Z,100230.20
2023-05-06T01:43:52.040Z,100231.44
2023-05-06T01:46:22.248Z,100222.50
2023-05-06T01:48:54.514Z,100216.76
2023-05-06T01:51:25.166Z,100217.00
2023-05-06T01:53:53.982Z,100215.30
2023-05-06T01:56:22.856Z,100214.34
2023-05-06T01:58:51.543Z,100215.89
2023-05-06T02:01:20.459Z,100218.41
2023-05-06T02:03:49.381Z,100222.96
2023-05-06T02:06:18.732Z,100221.57
2023-05-06T02:08:47.777Z,100219.62
2023-05-06T02:11:21.203Z,100211.10
2023-05-06T02:13:52.575Z,100213.33
2023-05-06T02:16:22.836Z,100213.95
2023-05-06T02:18:51.880Z,100210.55
2023-05-06T02:21:21.943Z,100207.55
2023-05-06T02:23:51.600Z,100209.36
2023-05-06T02:26:20.171Z,100206.17
2023-05-06T02:28:48.968Z,100209.92
2023-05-06T02:31:17.891Z,100209.44
2023-05-06T02:33:46.549Z,100205.63
2023-05-06T02:36:15.216Z,100201.46
2023-05-06T02:38:43.915Z,100199.18
2023-05-06T02:41:12.909Z,100198.11
2023-05-06T02:43:41.600Z,100202.29
2023-05-06T02:46:10.565Z,100204.45
2023-05-06T02:48:39.358Z,100206.65
2023-05-06T02:51:07.847Z,100211.96
2023-05-06T02:53:36.866Z,100222.89
2023-05-06T02:56:06.568Z,100230.38
2023-05-06T02:58:35.158Z,100229.74
2023-05-06T03:01:03.992Z,100225.02
2023-05-06T03:03:34.074Z,100231.33
2023-05-06T03:06:03.651Z,100235.39
2023-05-06T03:08:32.656Z,100238.39
2023-05-06T03:11:03.299Z,100236.67
2023-05-06T03:13:32.064Z,100239.46
2023-05-06T03:16:01.080Z,100243.42
2023-05-06T03:18:30.777Z,100242.63
2023-05-06T03:20:59.696Z,100243.58
2023-05-06T03:23:28.451Z,100248.06
2023-05-06T03:25:57.430Z,100253.20
2023-05-06T03:28:26.562Z,100250.68
2023-05-06T03:30:55.952Z,100248.91
2023-05-06T03:33:25.258Z,100243.87
2023-05-06T03:35:54.856Z,100239.69
2023-05-06T03:38:23.958Z,100244.09
2023-05-06T03:40:57.130Z,100243.02
2023-05-06T03:43:26.333Z,100244.04
2023-05-06T03:45:58.393Z,100234.64
2023-05-06T03:48:27.099Z,100230.40
2023-05-06T03:50:56.405Z,100230.55
2023-05-06T03:53:26.418Z,100228.41
2023-05-06T03:55:55.299Z,100228.54
2023-05-06T03:58:24.167Z,100229.45
2023-05-06T04:00:53.700Z,100228.27
2023-05-06T04:03:22.527Z,100233.77
2023-05-06T04:05:52.598Z,100230.35
2023-05-06T04:08:24.559Z,100229.02
2023-05-06T04:10:56.016Z,100226.29
2023-05-06T04:13:29.284Z,100220.23
2023-05-06T04:16:00.180Z,100210.43
2023-05-06T04:18:34.750Z,100191.88
2023-05-06T04:21:07.678Z,100184.86
2023-05-06T04:23:38.913Z,100176.21
2023-05-06T04:26:08.486Z,100171.20
2023-05-06T04:28:37.791Z,100152.69
2023-05-06T04:31:08.942Z,100142.11
2023-05-06T04:33:42.550Z,100130.15
2023-05-06T04:36:14.198Z,100106.23
2023-05-06T04:38:48.219Z,100087.41
2023-05-06T04:41:17.396Z,100089.04
2023-05-06T04:43:46.603Z,100120.33
2023-05-06T04:46:18.631Z,100145.31
2023-05-06T04:48:47.867Z,100136.42
2023-05-06T04:51:17.108Z,100166.29
2023-05-06T04:53:46.055Z,100185.61
2023-05-06T04:56:14.840Z,100173.68
2023-05-06T04:58:43.941Z,100187.15
2023-05-06T05:01:12.864Z,100205.16
2023-05-06T05:03:41.851Z,100207.23
2023-05-06T05:06:12.260Z,100211.25
2023-05-06T05:08:41.639Z,100210.80
2023-05-06T05:11:11.075Z,100208.15
2023-05-06T05:13:40.240Z,100202.73
2023-05-06T05:16:08.932Z,100194.80
2023-05-06T05:18:39.171Z,100186.34
2023-05-06T05:21:14.929Z,100182.90
2023-05-06T05:23:43.922Z,100186.34
2023-05-06T05:26:13.299Z,100185.21
2023-05-06T05:28:42.096Z,100188.69
2023-05-06T05:31:10.860Z,100193.40
2023-05-06T05:33:40.717Z,100196.21
2023-05-06T05:36:13.267Z,100201.67
2023-05-06T05:38:42.089Z,100200.77
2023-05-06T05:41:11.174Z,100198.08
2023-05-06T05:43:40.462Z,100193.96
2023-05-06T05:46:09.143Z,100198.52
2023-05-06T05:48:40.198Z,100196.58
2023-05-06T05:51:09.481Z,100198.24
2023-05-06T05:53:38.481Z,100193.53
2023-05-06T05:56:08.530Z,100196.95
2023-05-06T05:58:38.199Z,100201.19
2023-05-06T06:01:07.202Z,100200.29
2023-05-06T06:03:36.091Z,100199.01
2023-05-06T06:06:08.195Z,100194.95
2023-05-06T06:08:37.027Z,100193.20
2023-05-06T06:11:06.430Z,100187.54
2023-05-06T06:13:41.578Z,100191.05
2023-05-06T06:16:11.622Z,100195.98
2023-05-06T06:18:40.166Z,100195.77
2023-05-06T06:21:08.950Z,100195.69
2023-05-06T06:23:38.764Z,100204.38
2023-05-06T06:26:07.750Z,100214.10
2023-05-06T06:28:36.562Z,100222.18
2023-05-06T06:31:06.287Z,100214.65
2023-05-06T06:33:35.249Z,100209.51
2023-05-06T06:36:04.554Z,100202.27
2023-05-06T06:38:34.068Z,100199.84
2023-05-06T06:41:04.083Z,100206.92
2023-05-06T06:43:33.294Z,100211.84
2023-05-06T06:46:03.796Z,100212.96
2023-05-06T06:48:32.926Z,100216.83
2023-05-06T06:51:02.683Z,100206.56
2023-05-06T06:53:31.493Z,100206.45
2023-05-06T06:56:03.507Z,100204.52
2023-05-06T06:58:34.004Z,100206.58
2023-05-06T07:01:03.054Z,100203.79
2023-05-06T07:03:34.195Z,100204.83
2023-05-06T07:06:03.322Z,100205.90
2023-05-06T07:08:32.097Z,100204.26
2023-05-06T07:11:03.197Z,100201.69
2023-05-06T07:13:33.847Z,100204.10
2023-05-06T07:16:08.475Z,100204.54
2023-05-06T07:18:37.939Z,100202.67
2023-05-06T07:21:07.204Z,100198.41
2023-05-06T07:23:36.317Z,100188.10
2023-05-06T07:26:06.206Z,100194.25
2023-05-06T07:28:36.552Z,100202.44
2023-05-06T07:31:09.653Z,100199.77
2023-05-06T07:33:39.552Z,100187.61
2023-05-06T07:36:09.255Z,100178.48
2023-05-06T07:38:37.837Z,100173.15
2023-05-06T07:41:07.030Z,100172.39
2023-05-06T07:43:35.746Z,100169.58
2023-05-06T07:46:04.921Z,100168.77
2023-05-06T07:48:33.757Z,100167.54
2023-05-06T07:51:03.615Z,100158.09
2023-05-06T07:53:33.130Z,100150.81
2023-05-06T07:56:03.049Z,100138.25
2023-05-06T07:58:32.124Z,100128.38
2023-05-06T08:01:02.023Z,100133.73
2023-05-06T08:03:32.169Z,100142.49
2023-05-06T08:06:02.623Z,100155.73
2023-05-06T08:08:32.545Z,100164.98
2023-05-06T08:11:01.496Z,100174.05
2023-05-06T08:13:31.257Z,100187.09
2023-05-06T08:15:59.941Z,100206.02
2023-05-06T08:18:29.262Z,100213.98
2023-05-06T08:20:58.397Z,100213.70
2023-05-06T08:23:27.182Z,100219.09
2023-05-06T08:25:55.890Z,100228.89
2023-05-06T08:28:25.372Z,100226.73
2023-05-06T08:30:54.284Z,100219.73
2023-05-06T08:33:23.050Z,100231.44
2023-05-06T08:35:52.482Z,100239.19
2023-05-06T08:38:21.437Z,100235.55
2023-05-06T08:40:53.114Z,100226.14
2023-05-06T08:43:23.028Z,100222.45
2023-05-06T08:45:51.963Z,100233.85
2023-05-06T08:48:21.015Z,100238.61
2023-05-06T08:50:49.899Z,100223.73
2023-05-06T08:53:19.319Z,100221.29
2023-05-06T08:55:50.463Z,100230.25
2023-05-06T08:58:19.656Z,100221.63
2023-05-06T09:00:48.924Z,100215.86
2023-05-06T09:03:17.942Z,100208.04
2023-05-06T09:05:47.133Z,100199.89
2023-05-06T09:08:16.663Z,100196.41
2023-05-06T09:10:46.558Z,100196.70
2023-05-06T09:13:17.518Z,100193.42
2023-05-06T09:15:48.298Z,100198.39
2023-05-06T09:18:21.553Z,100201.05
2023-05-06T09:20:52.243Z,100202.73
2023-05-06T09:23:23.103Z,100210.48
2023-05-06T09:25:52.895Z,100214.10
2023-05-06T09:28:22.405Z,100212.42
2023-05-06T09:30:53.294Z,100211.23
2023-05-06T09:33:22.426Z,100209.77
2023-05-06T09:35:51.397Z,100209.80
2023-05-06T09:38:20.008Z,100207.90
2023-05-06T09:40:48.803Z,100197.52
2023-05-06T09:43:17.600Z,100200.77
2023-05-06T09:45:46.712Z,100199.13
2023-05-06T09:48:16.381Z,100202.83
2023-05-06T09:50:44.969Z,100208.79
2023-05-06T09:53:15.217Z,100208.14
2023-05-06T09:55:44.526Z,100205.09
2023-05-06T09:58:13.595Z,100203.33
2023-05-06T10:00:46.930Z,100206.80
2023-05-06T10:03:16.118Z,100201.39
2023-05-06T10:05:45.402Z,100200.81
2023-05-06T10:08:18.947Z,100196.69
2023-05-06T10:10:49.708Z,100199.33
2023-05-06T10:13:21.290Z,100190.39
2023-05-06T10:15:50.934Z,100187.88
2023-05-06T10:18:21.730Z,100191.25
2023-05-06T10:20:53.993Z,100192.21
2023-05-06T10:23:24.403Z,100186.17
2023-05-06T10:26:08.674Z,100178.75
2023-05-06T10:28:42.446Z,100181.29
2023-05-06T10:31:13.679Z,100181.63
2023-05-06T10:33:45.680Z,100192.25
2023-05-06T10:36:23.376Z,100194.95
2023-05-06T10:39:04.034Z,100194.66
2023-05-06T10:41:34.150Z,100195.89
2023-05-06T10:44:03.158Z,100201.33
2023-05-06T10:46:33.782Z,100201.38
2023-05-06T10:49:05.233Z,100202.54
2023-05-06T10:51:34.958Z,100201.87
2023-05-06T10:54:08.357Z,100200.55
2023-05-06T10:56:39.229Z,100198.16
2023-05-06T10:59:10.277Z,100195.17
2023-05-06T11:01:43.409Z,100193.14
2023-05-06T11:04:17.952Z,100189.98
2023-05-06T11:06:51.482Z,100197.77
2023-05-06T11:09:25.377Z,100193.69
2023-05-06T11:12:03.209Z,100194.53
2023-05-06T11:14:36.789Z,100188.67
2023-05-06T11:17:10.921Z,100187.86
2023-05-06T11:19:40.770Z,100192.70
2023-05-06T11:22:09.337Z,100193.85
2023-05-06T11:24:43.640Z,100197.21
2023-05-06T11:27:17.055Z,100197.19
2023-05-06T11:29:45.837Z,100195.47
2023-05-06T11:32:22.864Z,100190.11
2023-05-06T11:34:55.546Z,100190.64
2023-05-06T11:37:28.969Z,100201.73
2023-05-06T11:39:57.991Z,100205.02
2023-05-06T11:42:28.633Z,100203.69
2023-05-06T11:45:02.183Z,100209.31
2023-05-06T11:47:31.073Z,100211.94
2023-05-06T11:50:00.433Z,100209.89
2023-05-06T11:52:31.372Z,100212.52
2023-05-06T11:55:00.047Z,100214.42
2023-05-06T11:57:28.819Z,100215.67
2023-05-06T11:59:57.719Z,100219.05
2023-05-06T12:02:26.806Z,100221.52
2023-05-06T12:04:57.326Z,100223.48
2023-05-06T12:07:26.452Z,100220.48
2023-05-06T12:09:56.454Z,100215.31
2023-05-06T12:12:25.458Z,100221.13
2023-05-06T12:14:54.577Z,100215.68
2023-05-06T12:17:23.521Z,100215.94
2023-05-06T12:19:52.726Z,100221.08
2023-05-06T12:22:24.983Z,100223.25
2023-05-06T12:24:54.021Z,100232.38
2023-05-06T12:27:33.507Z,100233.36
2023-05-06T12:30:05.043Z,100232.80
2023-05-06T12:32:34.724Z,100233.57
2023-05-06T12:35:07.753Z,100231.77
2023-05-06T12:37:36.705Z,100230.36
2023-05-06T12:40:06.161Z,100229.34
2023-05-06T12:42:35.180Z,100229.64
2023-05-06T12:45:16.781Z,100227.14
2023-05-06T12:47:59.749Z,100228.52
2023-05-06T12:50:41.716Z,100231.58
2023-05-06T12:53:16.001Z,100231.27
2023-05-06T12:55:45.921Z,100232.56
2023-05-06T12:58:20.873Z,100230.73
2023-05-06T13:00:49.987Z,100233.12
2023-05-06T13:03:19.698Z,100232.06
2023-05-06T13:05:51.109Z,100231.65
2023-05-06T13:08:20.535Z,100230.05
2023-05-06T13:10:50.891Z,100227.67
2023-05-06T13:13:20.450Z,100226.66
2023-05-06T13:15:50.349Z,100229.14
2023-05-06T13:18:19.839Z,100225.52
2023-05-06T13:20:49.562Z,100226.73
2023-05-06T13:23:20.204Z,100225.83
2023-05-06T13:26:03.666Z,100230.00
2023-05-06T13:28:34.251Z,100232.25
2023-05-06T13:31:03.739Z,100227.69
2023-05-06T13:33:34.815Z,100225.63
2023-05-06T13:36:05.570Z,100224.97
2023-05-06T13:38:34.526Z,100226.59
2023-05-06T13:41:03.517Z,100225.90
2023-05-06T13:43:33.127Z,100225.99
2023-05-06T13:46:04.533Z,100226.71
2023-05-06T13:48:35.346Z,100231.35
2023-05-06T13:51:04.734Z,100226.88
2023-05-06T13:53:36.162Z,100227.45
2023-05-06T13:56:05.159Z,100229.41
2023-05-06T13:58:33.724Z,100227.92
2023-05-06T14:01:03.930Z,100228.95
2023-05-06T14:03:35.039Z,100233.55
2023-05-06T14:06:06.548Z,100234.63
2023-05-06T14:08:38.379Z,100234.09
2023-05-06T14:11:15.383Z,100234.62
2023-05-06T14:14:01.417Z,100236.56
2023-05-06T14:16:40.481Z,100237.15
2023-05-06T14:19:21.164Z,100233.83
2023-05-06T14:21:59.207Z,100234.75
2023-05-06T14:24:35.306Z,100236.83
2023-05-06T14:27:08.078Z,100240.70
2023-05-06T14:29:43.829Z,100241.17
2023-05-06T14:32:15.176Z,100235.33
2023-05-06T14:34:47.656Z,100235.48
2023-05-06T14:37:20.287Z,100237.31
2023-05-06T14:39:53.411Z,100238.61
2023-05-06T14:42:25.479Z,100237.30
2023-05-06T14:44:57.308Z,100237.09
2023-05-06T14:47:29.246Z,100239.10
2023-05-06T14:50:04.291Z,100240.59
2023-05-06T14:52:47.052Z,100244.30
2023-05-06T14:55:26.213Z,100245.88
2023-05-06T14:57:56.780Z,100248.25
2023-05-06T15:00:28.660Z,100250.52
2023-05-06T15:03:03.895Z,100247.91
2023-05-06T15:05:38.277Z,100254.52
2023-05-06T15:08:13.014Z,100254.84
2023-05-06T15:10:48.198Z,100256.47
2023-05-06T15:13:22.045Z,100254.67
2023-05-06T15:15:54.743Z,100254.81
2023-05-06T15:18:31.626Z,100254.27
2023-05-06T15:21:02.519Z,100258.95
2023-05-06T15:23:33.486Z,100260.21
2023-05-06T15:26:04.759Z,100257.27
2023-05-06T15:28:39.592Z,100262.77
2023-05-06T15:31:17.426Z,100266.26
2023-05-06T15:33:54.383Z,100267.89
2023-05-06T15:36:30.933Z,100273.61
2023-05-06T15:39:04.099Z,100277.64
2023-05-06T15:41:38.751Z,100278.75
2023-05-06T15:44:11.968Z,100277.42
2023-05-06T15:46:44.644Z,100276.85
2023-05-06T15:49:47.267Z,100283.57
2023-05-06T15:52:14.258Z,100281.66
2023-05-06T15:54:59.716Z,100284.33
2023-05-06T15:57:41.724Z,100284.95
2023-05-06T16:00:22.775Z,100284.08
2023-05-06T16:03:11.675Z,100287.38
2023-05-06T16:06:02.535Z,100287.48
2023-05-06T16:08:39.919Z,100290.37
2023-05-06T16:11:19.679Z,100293.36
2023-05-06T16:14:07.504Z,100295.23
2023-05-06T16:17:04.661Z,100292.41
2023-05-06T16:19:35.925Z,100289.64
2023-05-06T16:22:11.749Z,100290.10
2023-05-06T16:24:51.418Z,100288.17
2023-05-06T16:27:23.384Z,100292.38
2023-05-06T16:29:58.761Z,100293.04
2023-05-06T16:32:41.801Z,100295.73
2023-05-06T16:35:22.497Z,100296.52
2023-05-06T16:37:57.626Z,100293.61
2023-05-06T16:40:34.903Z,100296.44
2023-05-06T16:43:12.250Z,100300.80
2023-05-06T16:45:48.727Z,100304.14
2023-05-06T16:48:30.122Z,100298.22
2023-05-06T16:51:02.302Z,100301.63
2023-05-06T16:53:37.233Z,100299.92
2023-05-06T16:56:11.384Z,100299.95
2023-05-06T16:58:44.925Z,100298.45
2023-05-06T17:01:19.681Z,100296.26
2023-05-06T17:03:50.922Z,100300.35
2023-05-06T17:06:25.153Z,100305.55
2023-05-06T17:09:00.736Z,100310.95
2023-05-06T17:11:36.737Z,100310.16
2023-05-06T17:14:10.833Z,100316.83
2023-05-06T17:16:46.796Z,100314.85
2023-05-06T17:19:19.132Z,100315.28
2023-05-06T17:21:48.428Z,100321.02
2023-05-06T17:24:17.780Z,100321.95
2023-05-06T17:26:47.535Z,100322.86
2023-05-06T17:29:16.467Z,100320.20
2023-05-06T17:31:45.441Z,100320.80
2023-05-06T17:34:15.504Z,100321.66
2023-05-06T17:36:44.365Z,100329.45
2023-05-06T17:39:13.336Z,100328.27
2023-05-06T17:41:42.652Z,100331.54
2023-05-06T17:44:12.752Z,100337.13
2023-05-06T17:46:41.747Z,100341.09
2023-05-06T17:49:12.063Z,100340.78
2023-05-06T17:51:41.776Z,100346.46
2023-05-06T17:54:10.473Z,100345.02
2023-05-06T17:56:39.342Z,100348.71
2023-05-06T17:59:08.448Z,100353.58
2023-05-06T18:01:37.560Z,100356.94
2023-05-06T18:04:06.481Z,100363.04
2023-05-06T18:06:35.538Z,100360.53
2023-05-06T18:09:04.924Z,100363.80
2023-05-06T18:11:33.717Z,100359.36
2023-05-06T18:14:02.513Z,100364.55
2023-05-06T18:16:31.866Z,100368.71
2023-05-06T18:19:05.420Z,100372.20
2023-05-06T18:21:35.490Z,100374.77
2023-05-06T18:24:15.315Z,100375.26
2023-05-06T18:26:46.195Z,100377.71
2023-05-06T18:29:15.055Z,100379.31
2023-05-06T18:31:44.288Z,100387.12
2023-05-06T18:34:14.399Z,100388.84
2023-05-06T18:36:45.266Z,100391.23
2023-05-06T18:39:15.604Z,100393.81
2023-05-06T18:41:47.470Z,100396.76
2023-05-06T18:44:16.789Z,100397.17
2023-05-06T18:46:45.494Z,100403.17
2023-05-06T18:49:16.525Z,100403.44
2023-05-06T18:51:46.684Z,100406.21
2023-05-06T18:54:16.341Z,100408.55
2023-05-06T18:56:47.397Z,100410.66
2023-05-06T18:59:17.049Z,100411.77
2023-05-06T19:01:47.185Z,100412.24
2023-05-06T19:04:17.392Z,100417.65
2023-05-06T19:06:47.308Z,100418.52
2023-05-06T19:09:16.728Z,100415.95
2023-05-06T19:11:46.954Z,100421.83
2023-05-06T19:14:16.733Z,100418.77
2023-05-06T19:16:45.870Z,100420.21
2023-05-06T19:19:15.534Z,100427.27
2023-05-06T19:21:44.482Z,100430.53
2023-05-06T19:24:13.102Z,100431.44
2023-05-06T19:26:42.111Z,100432.44
2023-05-06T19:29:11.219Z,100435.70
2023-05-06T19:31:40.229Z,100439.94
2023-05-06T19:34:09.215Z,100442.45
2023-05-06T19:36:38.690Z,100440.95
2023-05-06T19:39:08.119Z,100443.73
2023-05-06T19:41:37.193Z,100441.16
2023-05-06T19:44:07.407Z,100445.48
2023-05-06T19:46:36.943Z,100448.16
2023-05-06T19:49:06.966Z,100446.55
2023-05-06T19:51:36.870Z,100454.25
2023-05-06T19:54:06.876Z,100452.73
2023-05-06T19:56:36.278Z,100446.33
2023-05-06T19:59:05.887Z,100449.27
2023-05-06T20:01:35.422Z,100454.55
2023-05-06T20:04:04.490Z,100454.23
2023-05-06T20:06:33.779Z,100459.52
2023-05-06T20:09:03.099Z,100464.91
2023-05-06T20:11:32.175Z,100460.14
2023-05-06T20:14:01.191Z,100462.53
2023-05-06T20:16:30.241Z,100462.16
2023-05-06T20:18:59.664Z,100465.27
2023-05-06T20:21:28.454Z,100466.31
2023-05-06T20:23:57.876Z,100466.94
2023-05-06T20:26:27.846Z,100468.16
2023-05-06T20:28:56.663Z,100468.04
2023-05-06T20:31:25.903Z,100469.47
2023-05-06T20:33:55.052Z,100468.60
2023-05-06T20:36:24.655Z,100468.70
2023-05-06T20:38:53.758Z,100473.86
2023-05-06T20:41:22.770Z,100474.16
2023-05-06T20:43:53.425Z,100470.36
2023-05-06T20:46:22.491Z,100471.79
2023-05-06T20:48:54.856Z,100477.02
2023-05-06T20:51:23.843Z,100474.69
2023-05-06T20:53:52.726Z,100477.73
2023-05-06T20:56:25.161Z,100483.16
2023-05-06T20:58:55.335Z,100486.15
2023-05-06T21:01:25.908Z,100485.13
2023-05-06T21:03:54.754Z,100485.36
2023-05-06T21:06:28.138Z,100487.46
2023-05-06T21:08:58.774Z,100487.86
2023-05-06T21:11:28.919Z,100484.64
2023-05-06T21:13:58.390Z,100485.15
2023-05-06T21:16:27.595Z,100480.61
2023-05-06T21:18:57.613Z,100482.04
2023-05-06T21:21:26.393Z,100481.36
2023-05-06T21:23:56.490Z,100482.20
2023-05-06T21:26:25.518Z,100484.39
2023-05-06T21:28:54.390Z,100489.08
2023-05-06T21:31:25.581Z,100490.89
2023-05-06T21:33:56.530Z,100492.58
2023-05-06T21:36:26.593Z,100495.25
2023-05-06T21:39:07.087Z,100499.25
2023-05-06T21:41:36.762Z,100506.41
2023-05-06T21:44:08.552Z,100504.10
2023-05-06T21:46:38.208Z,100508.63
2023-05-06T21:49:07.027Z,100508.02
2023-05-06T21:51:36.451Z,100506.94
2023-05-06T21:54:05.238Z,100508.81
2023-05-06T21:56:34.008Z,100505.45
2023-05-06T21:59:03.085Z,100508.25
2023-05-06T22:01:32.445Z,100513.89
2023-05-06T22:04:01.269Z,100510.00
2023-05-06T22:06:30.058Z,100511.95
2023-05-06T22:08:58.558Z,100512.48
2023-05-06T22:11:27.539Z,100513.13
2023-05-06T22:13:56.352Z,100517.02
2023-05-06T22:16:24.946Z,100518.40
2023-05-06T22:18:53.704Z,100518.13
2023-05-06T22:21:22.497Z,100519.79
2023-05-06T22:23:51.182Z,100517.86
2023-05-06T22:26:22.338Z,100521.27
2023-05-06T22:28:50.893Z,100520.30
2023-05-06T22:31:20.995Z,100518.60
2023-05-06T22:33:52.697Z,100513.70
2023-05-06T22:36:22.196Z,100518.34
2023-05-06T22:38:50.871Z,100519.68
2023-05-06T22:41:19.445Z,100521.86
2023-05-06T22:43:48.349Z,100521.97
2023-05-06T22:46:17.234Z,100525.33
2023-05-06T22:48:47.446Z,100522.20
2023-05-06T22:51:16.455Z,100523.96
2023-05-06T22:53:45.669Z,100523.17
2023-05-06T22:56:14.223Z,100524.93
2023-05-06T22:58:43.636Z,100528.66
2023-05-06T23:01:12.453Z,100529.40
2023-05-06T23:03:41.069Z,100530.02
2023-05-06T23:06:11.236Z,100531.35
2023-05-06T23:08:39.839Z,100527.94
2023-05-06T23:11:09.717Z,100522.59
2023-05-06T23:13:38.616Z,100529.74
2023-05-06T23:16:08.137Z,100528.50
2023-05-06T23:18:37.109Z,100533.24
2023-05-06T23:21:06.413Z,100532.02
2023-05-06T23:23:35.001Z,100534.65
2023-05-06T23:26:03.772Z,100535.92
2023-05-06T23:28:32.677Z,100539.58
2023-05-06T23:31:01.384Z,100541.10
2023-05-06T23:33:31.116Z,100544.38
2023-05-06T23:36:01.155Z,100540.84
2023-05-06T23:38:29.886Z,100539.10
2023-05-06T23:40:58.672Z,100541.96
2023-05-06T23:43:27.558Z,100543.45
2023-05-06T23:45:56.505Z,100546.29
2023-05-06T23:48:25.018Z,100544.67
2023-05-06T23:50:55.057Z,100546.45
2023-05-06T23:53:23.933Z,100549.77
2023-05-06T23:55:52.716Z,100553.95
2023-05-06T23:58:21.387Z,100554.38
